createdAt,value
2019-02-18T00:01:52.976Z,24.50
2019-02-18T00:04:17.447Z,23.87
2019-02-18T00:06:41.874Z,22.30
2019-02-18T00:09:06.415Z,21.97
2019-02-18T00:11:30.922Z,22.70
2019-02-18T00:13:55.352Z,24.63
2019-02-18T00:16:19.776Z,24.73
2019-02-18T00:18:44.186Z,21.97
2019-02-18T00:21:08.603Z,22.63
2019-02-18T00:23:33.012Z,22.93
2019-02-18T00:25:57.438Z,20.93
2019-02-18T00:28:21.850Z,20.87
2019-02-18T00:30:46.252Z,23.20
2019-02-18T00:33:10.687Z,21.80
2019-02-18T00:35:35.082Z,19.33
2019-02-18T00:37:59.489Z,19.47
2019-02-18T00:40:23.990Z,20.37
2019-02-18T00:42:48.384Z,19.53
2019-02-18T00:45:13.717Z,22.13
2019-02-18T00:47:38.153Z,19.00
2019-02-18T00:50:02.562Z,18.87
2019-02-18T00:52:26.981Z,20.23
2019-02-18T00:54:51.388Z,21.80
2019-02-18T00:57:15.786Z,20.93
2019-02-18T00:59:40.229Z,20.07
2019-02-18T01:02:04.762Z,17.90
2019-02-18T01:04:29.343Z,21.50
2019-02-18T01:06:53.762Z,17.93
2019-02-18T01:09:18.250Z,18.47
2019-02-18T01:11:42.643Z,20.50
2019-02-18T01:14:07.070Z,18.03
2019-02-18T01:16:31.562Z,19.80
2019-02-18T01:18:55.987Z,19.17
2019-02-18T01:21:20.396Z,15.70
2019-02-18T01:23:44.825Z,20.07
2019-02-18T01:26:09.309Z,17.83
2019-02-18T01:28:33.714Z,21.70
2019-02-18T01:30:58.129Z,16.97
2019-02-18T01:33:22.561Z,17.50
2019-02-18T01:35:46.979Z,21.57
2019-02-18T01:38:11.396Z,17.03
2019-02-18T01:40:35.815Z,17.97
2019-02-18T01:43:00.222Z,20.57
2019-02-18T01:45:25.182Z,17.83
2019-02-18T01:47:49.578Z,18.37
2019-02-18T01:50:15.244Z,19.33
2019-02-18T01:52:39.722Z,18.30
2019-02-18T01:55:04.687Z,19.07
2019-02-18T01:57:29.115Z,19.00
2019-02-18T01:59:53.604Z,16.90
2019-02-18T02:02:18.009Z,16.30
2019-02-18T02:04:42.427Z,16.67
2019-02-18T02:07:06.931Z,18.10
2019-02-18T02:09:31.333Z,17.17
2019-02-18T02:11:55.777Z,17.17
2019-02-18T02:14:20.233Z,20.10
2019-02-18T02:16:44.662Z,18.03
2019-02-18T02:19:09.056Z,17.73
2019-02-18T02:21:33.497Z,17.83
2019-02-18T02:23:57.902Z,17.17
2019-02-18T02:26:22.311Z,17.83
2019-02-18T02:28:46.713Z,16.83
2019-02-18T02:31:11.145Z,18.57
2019-02-18T02:33:35.551Z,16.67
2019-02-18T02:35:59.947Z,17.50
2019-02-18T02:38:24.383Z,19.70
2019-02-18T02:40:48.772Z,17.80
2019-02-18T02:43:13.290Z,17.87
2019-02-18T02:45:37.788Z,16.67
2019-02-18T02:48:02.231Z,20.23
2019-02-18T02:50:26.649Z,16.53
2019-02-18T02:52:51.084Z,19.40
2019-02-18T02:55:15.476Z,18.30
2019-02-18T02:57:39.892Z,15.27
2019-02-18T03:00:12.980Z,20.03
2019-02-18T03:02:37.377Z,16.43
2019-02-18T03:05:01.801Z,16.40
2019-02-18T03:07:26.212Z,16.97
2019-02-18T03:09:50.619Z,16.93
2019-02-18T03:12:15.031Z,17.63
2019-02-18T03:14:39.473Z,15.53
2019-02-18T03:17:03.880Z,18.60
2019-02-18T03:19:28.301Z,16.63
2019-02-18T03:21:52.695Z,16.13
2019-02-18T03:24:17.142Z,17.60
2019-02-18T03:26:41.555Z,17.03
2019-02-18T03:29:31.104Z,16.33
2019-02-18T03:31:55.534Z,15.30
2019-02-18T03:34:32.048Z,16.80
2019-02-18T03:36:56.449Z,16.93
2019-02-18T03:39:20.883Z,16.70
2019-02-18T03:41:45.291Z,14.30
2019-02-18T03:44:09.702Z,16.93
2019-02-18T03:46:34.150Z,15.93
2019-02-18T03:48:58.551Z,16.80
2019-02-18T03:51:22.968Z,15.80
2019-02-18T03:53:47.432Z,15.50
2019-02-18T03:56:11.868Z,16.77
2019-02-18T03:58:36.346Z,16.83
2019-02-18T04:01:00.903Z,17.87
2019-02-18T04:03:25.402Z,18.27
2019-02-18T04:05:49.808Z,15.83
2019-02-18T04:08:14.215Z,17.20
2019-02-18T04:10:38.610Z,18.27
2019-02-18T04:13:03.116Z,18.03
2019-02-18T04:15:27.519Z,17.20
2019-02-18T04:17:51.952Z,16.30
2019-02-18T04:20:16.372Z,14.07
2019-02-18T04:22:40.814Z,18.57
2019-02-18T04:25:06.787Z,16.60
2019-02-18T04:27:31.191Z,15.30
2019-02-18T04:29:55.631Z,16.33
2019-02-18T04:32:20.048Z,16.63
2019-02-18T04:34:44.455Z,18.07
2019-02-18T04:37:08.857Z,14.10
2019-02-18T04:39:33.367Z,18.43
2019-02-18T04:41:57.764Z,16.40
2019-02-18T04:44:22.196Z,14.20
2019-02-18T04:46:46.593Z,16.53
2019-02-18T04:49:11.030Z,16.47
2019-02-18T04:51:35.450Z,17.07
2019-02-18T04:53:59.886Z,17.07
2019-02-18T04:56:24.319Z,16.83
2019-02-18T04:58:48.704Z,15.30
2019-02-18T05:01:13.141Z,13.70
2019-02-18T05:03:37.540Z,16.17
2019-02-18T05:06:01.973Z,15.47
2019-02-18T05:08:26.387Z,15.87
2019-02-18T05:10:50.802Z,14.37
2019-02-18T05:13:15.202Z,15.23
2019-02-18T05:15:40.382Z,18.97
2019-02-18T05:18:05.132Z,14.50
2019-02-18T05:20:29.530Z,18.00
2019-02-18T05:22:53.968Z,14.00
2019-02-18T05:25:18.420Z,16.20
2019-02-18T05:27:42.859Z,13.60
2019-02-18T05:30:09.897Z,14.30
2019-02-18T05:32:34.327Z,17.27
2019-02-18T05:34:58.738Z,14.60
2019-02-18T05:37:23.173Z,18.83
2019-02-18T05:39:47.582Z,15.23
2019-02-18T05:42:11.989Z,14.87
2019-02-18T05:44:36.407Z,20.20
2019-02-18T05:47:00.821Z,18.73
2019-02-18T05:49:25.249Z,13.97
2019-02-18T05:51:49.648Z,18.93
2019-02-18T05:54:14.093Z,16.73
2019-02-18T05:56:38.511Z,18.03
2019-02-18T05:59:02.999Z,18.03
2019-02-18T06:01:27.440Z,16.30
2019-02-18T06:03:51.860Z,17.57
2019-02-18T06:06:16.258Z,17.50
2019-02-18T06:08:40.699Z,19.30
2019-02-18T06:11:05.128Z,16.43
2019-02-18T06:13:29.587Z,18.50
2019-02-18T06:15:53.994Z,14.70
2019-02-18T06:18:18.422Z,17.07
2019-02-18T06:20:42.865Z,16.07
2019-02-18T06:23:07.358Z,14.10
2019-02-18T06:25:31.868Z,16.27
2019-02-18T06:27:56.289Z,18.57
2019-02-18T06:30:20.721Z,21.27
2019-02-18T06:32:45.156Z,16.67
2019-02-18T06:35:09.734Z,14.83
2019-02-18T06:37:34.143Z,16.17
2019-02-18T06:39:58.591Z,14.50
2019-02-18T06:42:23.008Z,13.70
2019-02-18T06:44:49.100Z,14.43
2019-02-18T06:47:13.530Z,15.83
2019-02-18T06:49:37.943Z,14.67
2019-02-18T06:52:02.463Z,17.50
2019-02-18T06:54:26.885Z,15.90
2019-02-18T06:56:52.957Z,14.60
2019-02-18T06:59:21.956Z,14.30
2019-02-18T07:01:59.964Z,17.50
2019-02-18T07:04:28.718Z,18.93
2019-02-18T07:07:06.729Z,15.57
2019-02-18T07:09:51.203Z,11.80
2019-02-18T07:12:15.393Z,12.60
2019-02-18T07:14:39.803Z,15.07
2019-02-18T07:17:04.246Z,14.40
2019-02-18T07:19:28.750Z,14.43
2019-02-18T07:21:53.200Z,15.43
2019-02-18T07:24:17.618Z,18.70
2019-02-18T07:26:42.041Z,16.03
2019-02-18T07:29:06.552Z,15.97
2019-02-18T07:31:30.971Z,18.43
2019-02-18T07:33:55.426Z,17.43
2019-02-18T07:36:19.879Z,18.20
2019-02-18T07:38:44.277Z,16.30
2019-02-18T07:41:08.681Z,15.23
2019-02-18T07:43:33.131Z,16.23
2019-02-18T07:45:57.561Z,17.23
2019-02-18T07:48:22.098Z,15.67
2019-02-18T07:50:46.506Z,15.50
2019-02-18T07:53:10.945Z,13.10
2019-02-18T07:55:35.363Z,15.33
2019-02-18T07:57:59.806Z,15.63
2019-02-18T08:00:24.302Z,15.70
2019-02-18T08:02:48.816Z,14.47
2019-02-18T08:05:13.225Z,15.73
2019-02-18T08:07:37.631Z,14.17
2019-02-18T08:10:11.481Z,14.30
2019-02-18T08:12:28.246Z,12.80
2019-02-18T08:14:52.691Z,13.87
2019-02-18T08:17:17.110Z,13.30
2019-02-18T08:19:41.549Z,13.40
2019-02-18T08:22:06.005Z,13.20
2019-02-18T08:24:30.446Z,13.87
2019-02-18T08:26:54.863Z,14.50
2019-02-18T08:29:19.254Z,15.00
2019-02-18T08:31:43.670Z,13.73
2019-02-18T08:34:08.086Z,14.17
2019-02-18T08:36:32.487Z,14.13
2019-02-18T08:38:56.900Z,12.77
2019-02-18T08:41:21.294Z,15.53
2019-02-18T08:43:45.701Z,14.70
2019-02-18T08:46:10.097Z,14.97
2019-02-18T08:48:34.524Z,15.60
2019-02-18T08:50:58.906Z,13.17
2019-02-18T08:53:23.290Z,13.27
2019-02-18T08:55:47.711Z,15.33
2019-02-18T08:58:12.096Z,16.07
2019-02-18T09:00:36.632Z,15.00
2019-02-18T09:03:01.038Z,14.10
2019-02-18T09:05:25.481Z,13.73
2019-02-18T09:07:49.892Z,15.27
2019-02-18T09:10:15.258Z,14.53
2019-02-18T09:12:39.666Z,12.97
2019-02-18T09:15:14.345Z,14.17
2019-02-18T09:17:44.006Z,13.43
2019-02-18T09:23:24.841Z,13.43
2019-02-18T09:28:25.147Z,15.30
2019-02-18T09:33:25.517Z,12.63
2019-02-18T09:35:50.038Z,17.13
2019-02-18T09:38:24.365Z,14.50
2019-02-18T09:40:58.571Z,13.93
2019-02-18T09:46:01.031Z,13.57
2019-02-18T09:48:25.589Z,13.40
2019-02-18T09:50:50.046Z,12.20
2019-02-18T09:53:14.475Z,15.37
2019-02-18T09:55:38.988Z,15.83
2019-02-18T09:58:03.387Z,13.20
2019-02-18T10:00:27.801Z,12.90
2019-02-18T10:05:28.857Z,13.70
2019-02-18T10:07:53.300Z,13.57
2019-02-18T10:10:31.834Z,12.93
2019-02-18T10:15:45.589Z,12.97
2019-02-18T10:18:10.084Z,15.20
2019-02-18T10:20:34.761Z,12.03
2019-02-18T10:22:59.219Z,13.80
2019-02-18T10:27:59.492Z,10.90
2019-02-18T10:30:23.876Z,13.73
2019-02-18T10:33:00.298Z,11.93
2019-02-18T10:38:01.162Z,12.00
2019-02-18T10:40:25.574Z,13.20
2019-02-18T10:45:26.860Z,12.97
2019-02-18T10:47:51.281Z,12.67
2019-02-18T10:50:15.760Z,12.03
2019-02-18T10:52:40.269Z,12.67
2019-02-18T10:55:19.668Z,13.73
2019-02-18T10:57:44.094Z,13.43
2019-02-18T11:00:28.326Z,15.70
2019-02-18T11:02:52.749Z,14.27
2019-02-18T11:05:17.229Z,13.73
2019-02-18T11:07:41.673Z,12.67
2019-02-18T11:13:03.435Z,13.03
2019-02-18T11:15:27.874Z,15.90
2019-02-18T11:23:05.015Z,14.07
2019-02-18T11:25:29.513Z,13.50
2019-02-18T11:27:53.961Z,13.63
2019-02-18T11:33:15.754Z,14.03
2019-02-18T11:43:36.510Z,12.57
2019-02-18T11:46:00.916Z,13.07
2019-02-18T11:51:01.823Z,12.63
2019-02-18T11:53:26.278Z,12.70
2019-02-18T11:55:50.691Z,14.17
2019-02-18T11:58:15.271Z,12.83
2019-02-18T12:00:39.757Z,13.37
2019-02-18T12:08:11.487Z,12.87
2019-02-18T12:10:35.902Z,12.60
2019-02-18T12:13:00.320Z,11.33
2019-02-18T12:18:00.316Z,11.77
2019-02-18T12:23:01.181Z,11.20
2019-02-18T12:28:01.956Z,12.93
2019-02-18T12:30:26.457Z,12.60
2019-02-18T12:35:30.858Z,14.18
2019-02-18T12:37:57.997Z,12.53
2019-02-18T12:40:22.451Z,11.53
2019-02-18T12:47:58.934Z,10.88
2019-02-18T12:50:23.370Z,11.30
2019-02-18T12:52:58.477Z,13.30
2019-02-18T12:55:23.089Z,12.33
2019-02-18T12:57:59.800Z,13.28
2019-02-18T13:03:00.276Z,30.75
2019-02-18T13:05:24.718Z,14.93
2019-02-18T13:07:49.211Z,15.10
2019-02-18T13:12:49.874Z,12.30
2019-02-18T13:18:11.736Z,11.30
2019-02-18T13:20:36.180Z,10.03
2019-02-18T13:25:36.472Z,11.08
2019-02-18T13:28:08.289Z,12.40
2019-02-18T13:30:32.750Z,10.82
2019-02-18T13:32:57.221Z,10.05
2019-02-18T13:35:21.741Z,11.05
2019-02-18T13:37:46.155Z,10.80
2019-02-18T13:43:07.875Z,10.78
2019-02-18T13:48:08.781Z,12.78
2019-02-18T13:50:33.372Z,11.40
2019-02-18T13:52:57.782Z,12.05
2019-02-18T14:03:14.413Z,13.03
2019-02-18T14:08:15.639Z,10.48
2019-02-18T14:10:40.140Z,12.13
2019-02-18T14:13:04.675Z,9.63
2019-02-18T14:15:29.276Z,10.18
2019-02-18T14:17:54.151Z,10.58
2019-02-18T14:20:18.810Z,10.95
2019-02-18T14:22:43.382Z,10.08
2019-02-18T14:27:54.519Z,9.93
2019-02-18T14:33:16.257Z,10.08
2019-02-18T14:35:40.834Z,11.95
2019-02-18T14:38:05.397Z,12.15
2019-02-18T14:43:05.903Z,9.85
2019-02-18T14:45:30.383Z,12.85
2019-02-18T14:47:54.870Z,12.33
2019-02-18T14:50:19.517Z,11.63
2019-02-18T14:52:51.545Z,10.08
2019-02-18T14:57:52.194Z,12.35
2019-02-18T15:03:14.063Z,11.18
2019-02-18T15:05:38.542Z,12.00
2019-02-18T15:10:44.982Z,11.53
2019-02-18T15:13:09.415Z,10.93
2019-02-18T15:15:33.883Z,11.75
2019-02-18T15:17:58.606Z,15.48
2019-02-18T15:20:23.023Z,12.73
2019-02-18T15:22:52.798Z,11.40
2019-02-18T15:25:17.201Z,12.63
2019-02-18T15:27:41.669Z,14.23
2019-02-18T15:30:26.879Z,11.97
2019-02-18T15:33:22.452Z,12.30
2019-02-18T15:38:23.566Z,11.27
2019-02-18T15:46:03.254Z,11.70
2019-02-18T15:48:48.489Z,11.13
2019-02-18T15:51:32.380Z,11.83
2019-02-18T15:53:56.808Z,9.77
2019-02-18T15:56:21.280Z,15.43
2019-02-18T15:58:45.820Z,12.23
2019-02-18T16:01:10.324Z,13.07
2019-02-18T16:03:34.732Z,12.30
2019-02-18T16:05:59.146Z,13.20
2019-02-18T16:08:23.560Z,12.57
2019-02-18T16:10:48.258Z,13.27
2019-02-18T16:13:12.659Z,12.40
2019-02-18T16:15:37.085Z,11.90
2019-02-18T16:18:01.484Z,11.67
2019-02-18T16:20:25.916Z,11.77
2019-02-18T16:22:50.338Z,12.10
2019-02-18T16:28:11.743Z,12.47
2019-02-18T16:30:36.166Z,12.50
2019-02-18T16:33:00.596Z,14.60
2019-02-18T16:35:45.775Z,11.30
2019-02-18T16:38:10.198Z,12.40
2019-02-18T16:40:34.616Z,10.30
2019-02-18T16:45:35.950Z,13.93
2019-02-18T16:50:43.642Z,16.67
2019-02-18T16:53:08.058Z,17.97
2019-02-18T16:55:32.811Z,15.23
2019-02-18T16:57:57.253Z,14.17
2019-02-18T17:02:57.055Z,16.07
2019-02-18T17:05:21.517Z,13.90
2019-02-18T17:07:45.947Z,18.33
2019-02-18T17:10:10.432Z,16.83
2019-02-18T17:12:34.877Z,17.53
2019-02-18T17:14:59.586Z,20.47
2019-02-18T17:20:20.812Z,15.77
2019-02-18T17:22:45.317Z,14.53
2019-02-18T17:25:29.128Z,13.57
2019-02-18T17:27:53.567Z,15.70
2019-02-18T17:30:17.974Z,16.90
2019-02-18T17:32:42.398Z,13.53
2019-02-18T17:38:03.334Z,13.43
2019-02-18T17:40:27.827Z,17.87
2019-02-18T17:42:52.340Z,17.87
2019-02-18T17:45:36.090Z,18.47
2019-02-18T17:48:00.536Z,17.73
2019-02-18T17:50:25.026Z,15.07
2019-02-18T17:52:49.436Z,13.60
2019-02-18T17:58:10.889Z,12.93
2019-02-18T18:03:10.585Z,14.17
2019-02-18T18:05:35.018Z,17.30
2019-02-18T18:07:59.615Z,16.33
2019-02-18T18:15:36.352Z,18.60
2019-02-18T18:18:00.777Z,18.00
2019-02-18T18:20:25.214Z,14.70
2019-02-18T18:22:56.655Z,20.10
2019-02-18T18:25:21.103Z,17.00
2019-02-18T18:27:45.598Z,14.87
2019-02-18T18:33:06.981Z,17.30
2019-02-18T18:35:51.943Z,13.57
2019-02-18T18:40:52.273Z,12.27
2019-02-18T18:43:16.710Z,11.93
2019-02-18T18:45:41.163Z,16.43
2019-02-18T18:48:05.840Z,15.87
2019-02-18T18:53:06.305Z,13.93
2019-02-18T18:55:30.775Z,13.43
2019-02-18T18:57:55.192Z,12.10
2019-02-18T19:00:40.426Z,12.87
2019-02-18T19:08:20.049Z,14.13
2019-02-18T19:10:44.493Z,14.13
2019-02-18T19:13:10.779Z,14.57
2019-02-18T19:15:49.244Z,13.77
2019-02-18T19:18:12.187Z,12.67
2019-02-18T19:20:36.709Z,13.73
2019-02-18T19:23:01.119Z,12.57
2019-02-18T19:25:37.670Z,12.90
2019-02-18T19:28:02.096Z,16.67
2019-02-18T19:38:36.367Z,22.70
2019-02-18T19:41:00.821Z,21.33
2019-02-18T19:43:25.294Z,19.97
2019-02-18T19:48:25.992Z,17.93
2019-02-18T19:50:50.569Z,21.87
2019-02-18T19:53:15.115Z,17.67
2019-02-18T19:55:39.810Z,18.10
2019-02-18T19:58:04.384Z,18.90
2019-02-18T20:00:28.908Z,19.30
2019-02-18T20:02:53.510Z,16.33
2019-02-18T20:10:30.992Z,18.77
2019-02-18T20:12:55.500Z,18.57
2019-02-18T20:15:19.926Z,18.17
2019-02-18T20:17:44.490Z,17.50
2019-02-18T20:23:05.578Z,15.60
2019-02-18T20:25:30.027Z,17.17
2019-02-18T20:27:54.522Z,18.90
2019-02-18T20:30:19.028Z,23.77
2019-02-18T20:32:43.529Z,16.17
2019-02-18T20:40:41.073Z,18.97
2019-02-18T20:43:05.477Z,19.30
2019-02-18T20:45:29.980Z,22.20
2019-02-18T20:47:54.430Z,23.80
2019-02-18T20:50:19.054Z,20.30
2019-02-18T20:52:43.470Z,28.83
2019-02-18T20:58:05.085Z,18.07
2019-02-18T21:00:29.515Z,15.30
2019-02-18T21:02:54.021Z,15.23
2019-02-18T21:05:18.528Z,22.60
2019-02-18T21:07:43.018Z,17.27
2019-02-18T21:10:28.558Z,19.67
2019-02-18T21:12:53.055Z,16.33
2019-02-18T21:15:17.687Z,18.33
2019-02-18T21:17:42.186Z,15.70
2019-02-18T21:23:03.879Z,16.10
2019-02-18T21:30:41.181Z,19.17
2019-02-18T21:33:05.847Z,15.60
2019-02-18T21:35:30.373Z,14.60
2019-02-18T21:37:54.880Z,14.37
2019-02-18T21:40:19.309Z,16.57
2019-02-18T21:42:43.841Z,12.47
2019-02-18T21:48:05.725Z,14.30
2019-02-18T21:50:30.102Z,14.30
2019-02-18T21:52:54.518Z,18.00
2019-02-18T21:55:19.028Z,15.40
2019-02-18T21:57:43.544Z,15.13
2019-02-18T22:03:04.900Z,15.63
2019-02-18T22:05:29.309Z,14.87
2019-02-18T22:08:00.408Z,14.63
2019-02-18T22:10:31.158Z,15.67
2019-02-18T22:15:31.665Z,14.57
2019-02-18T22:17:56.186Z,15.03
2019-02-18T22:20:20.938Z,15.90
2019-02-18T22:22:52.339Z,13.07
2019-02-18T22:25:29.266Z,15.20
2019-02-18T22:30:29.929Z,13.67
2019-02-18T22:33:01.960Z,15.20
2019-02-18T22:35:26.357Z,16.57
2019-02-18T22:37:50.772Z,15.30
2019-02-18T22:40:26.433Z,14.00
2019-02-18T22:45:27.163Z,15.13
2019-02-18T22:50:34.547Z,14.50
2019-02-18T22:52:58.957Z,16.43
2019-02-18T22:55:23.354Z,17.40
2019-02-18T22:57:47.842Z,14.67
2019-02-18T23:00:52.488Z,13.67
2019-02-18T23:03:16.990Z,14.00
2019-02-18T23:05:41.498Z,13.03
2019-02-18T23:08:05.918Z,14.77
2019-02-18T23:13:13.029Z,14.57
2019-02-18T23:15:37.473Z,13.43
2019-02-18T23:18:01.912Z,18.03
2019-02-18T23:20:26.363Z,12.17
2019-02-18T23:28:02.955Z,14.70
2019-02-18T23:30:27.381Z,15.00
2019-02-18T23:35:35.313Z,15.97
2019-02-18T23:37:59.800Z,15.13
2019-02-18T23:40:24.217Z,12.77
2019-02-18T23:42:59.867Z,15.33
2019-02-18T23:45:24.287Z,16.33
2019-02-18T23:47:48.710Z,15.13
2019-02-18T23:50:13.129Z,18.90
2019-02-18T23:52:37.537Z,16.23
2019-02-18T23:55:01.971Z,17.20
2019-02-18T23:57:26.372Z,14.37
2019-02-18T23:59:50.792Z,14.33
